Time;durP1;ratioP1;P1;durP2;ratioP2;P2;SDS_P1;SDS_P2;PMS_P1;PMS_P2;Temp;Humidity;BMP_temperature;BMP_pressure;BME280_temperature;BME280_humidity;BME280_pressure;Samples;Min_cycle;Max_cycle;Signal;HPM_P1;HPM_P2
2023/10/23 00:00:32;;;;;;;11.70;4.97;;;12.20;75.50;;;;;;5092546;28;20453;-78
2023/10/23 00:03:00;;;;;;;11.87;5.40;;;12.20;75.50;;;;;;5094079;28;20480;-78
2023/10/23 00:05:30;;;;;;;10.43;4.73;;;12.20;75.50;;;;;;5094525;28;20490;-81
2023/10/23 00:07:59;;;;;;;10.23;4.23;;;12.20;75.50;;;;;;5092005;28;20760;-80
2023/10/23 00:10:27;;;;;;;6.33;2.73;;;12.10;75.40;;;;;;5080095;28;20464;-79
2023/10/23 00:12:56;;;;;;;10.77;4.07;;;12.10;75.30;;;;;;5092792;28;20463;-79
2023/10/23 00:15:24;;;;;;;8.87;2.93;;;12.10;75.30;;;;;;5095840;28;20543;-78
2023/10/23 00:17:52;;;;;;;7.90;2.50;;;12.00;75.20;;;;;;5097301;28;20558;-78
2023/10/23 00:20:21;;;;;;;9.13;3.13;;;12.00;75.00;;;;;;5095840;28;20913;-80
2023/10/23 00:22:50;;;;;;;17.23;4.50;;;11.90;75.10;;;;;;5092121;28;20562;-77
2023/10/23 00:25:18;;;;;;;15.90;5.70;;;11.80;75.10;;;;;;5074938;28;20486;-78
2023/10/23 00:27:47;;;;;;;12.67;5.00;;;11.80;75.10;;;;;;5086362;28;20469;-79
2023/10/23 00:30:15;;;;;;;9.20;3.47;;;11.70;75.20;;;;;;5070977;28;20492;-79
2023/10/23 00:32:43;;;;;;;11.50;4.13;;;11.70;75.30;;;;;;5091732;28;20467;-79
2023/10/23 00:35:11;;;;;;;7.27;2.57;;;11.60;75.40;;;;;;5074950;28;20892;-80
2023/10/23 00:37:41;;;;;;;12.80;5.20;;;11.60;75.30;;;;;;5089613;28;20551;-79
2023/10/23 00:40:12;;;;;;;19.73;5.90;;;11.60;75.30;;;;;;5090037;28;20462;-77
2023/10/23 00:42:40;;;;;;;20.90;6.30;;;11.60;75.30;;;;;;5092562;28;20448;-77
2023/10/23 00:45:09;;;;;;;30.17;10.67;;;11.50;75.50;;;;;;5075391;28;20513;-79
2023/10/23 00:47:37;;;;;;;24.93;8.90;;;11.60;75.50;;;;;;5079935;28;20481;-77
2023/10/23 00:50:06;;;;;;;16.57;5.17;;;11.60;75.40;;;;;;5070246;28;20461;-78
2023/10/23 00:52:34;;;;;;;10.77;3.43;;;11.60;75.50;;;;;;5094461;28;20456;-79
2023/10/23 00:55:08;;;;;;;6.57;2.50;;;11.60;75.40;;;;;;5070160;28;20459;-79
2023/10/23 00:57:38;;;;;;;10.63;2.83;;;11.50;75.30;;;;;;5067123;28;20461;-78
2023/10/23 01:00:08;;;;;;;5.83;2.37;;;11.50;75.20;;;;;;5094605;28;20453;-79
2023/10/23 01:02:36;;;;;;;11.90;3.67;;;11.40;75.20;;;;;;5093210;28;20513;-80
2023/10/23 01:05:05;;;;;;;6.50;2.50;;;11.40;75.20;;;;;;5096536;28;20472;-79
2023/10/23 01:07:34;;;;;;;10.17;3.80;;;11.40;75.30;;;;;;5090818;28;20460;-80
2023/10/23 01:10:03;;;;;;;30.23;11.17;;;11.30;75.10;;;;;;5076381;28;20472;-81
2023/10/23 01:12:31;;;;;;;36.03;14.37;;;11.20;75.10;;;;;;5097269;28;20457;-77
2023/10/23 01:15:00;;;;;;;36.97;13.37;;;11.10;75.10;;;;;;5076042;28;20543;-80
2023/10/23 01:17:30;;;;;;;15.47;5.30;;;11.10;75.10;;;;;;5090219;28;20551;-81
2023/10/23 01:19:59;;;;;;;7.10;2.43;;;11.00;75.20;;;;;;5073520;28;20453;-79
2023/10/23 01:22:27;;;;;;;10.50;3.77;;;10.90;75.30;;;;;;5080409;28;20990;-80
2023/10/23 01:24:57;;;;;;;8.20;3.30;;;10.90;75.30;;;;;;5072202;28;20472;-79
2023/10/23 01:27:26;;;;;;;10.07;2.57;;;10.90;75.40;;;;;;5089378;28;20514;-82
2023/10/23 01:29:54;;;;;;;7.10;2.10;;;10.90;75.50;;;;;;5077475;28;20460;-78
2023/10/23 01:32:22;;;;;;;7.10;2.47;;;10.90;75.60;;;;;;5072562;28;20521;-79
2023/10/23 01:34:52;;;;;;;8.00;2.57;;;10.90;75.80;;;;;;5076755;28;20453;-81
2023/10/23 01:37:20;;;;;;;8.60;2.20;;;10.90;75.80;;;;;;5089890;28;20460;-79
2023/10/23 01:39:48;;;;;;;7.10;2.40;;;11.00;75.70;;;;;;5072982;28;20544;-81
2023/10/23 01:42:16;;;;;;;10.70;4.63;;;10.90;75.60;;;;;;5090532;28;20810;-80
2023/10/23 01:44:47;;;;;;;13.30;4.60;;;10.90;75.70;;;;;;5076181;28;20979;-79
2023/10/23 01:47:14;;;;;;;10.47;3.40;;;10.90;75.50;;;;;;5072232;28;20993;-80
2023/10/23 01:49:42;;;;;;;8.63;3.10;;;10.90;75.50;;;;;;5072365;28;20999;-79
2023/10/23 01:52:11;;;;;;;8.40;2.83;;;10.90;75.60;;;;;;5087297;28;20460;-79
2023/10/23 01:54:39;;;;;;;11.43;2.90;;;10.90;75.60;;;;;;5093812;28;20456;-82
2023/10/23 01:57:07;;;;;;;12.40;2.90;;;10.90;75.70;;;;;;5073214;28;20445;-80
2023/10/23 01:59:35;;;;;;;18.40;7.30;;;10.90;75.80;;;;;;5071267;28;21130;-80
2023/10/23 02:02:05;;;;;;;8.90;4.00;;;10.90;75.50;;;;;;5082886;28;20484;-81
2023/10/23 02:04:34;;;;;;;16.77;7.50;;;10.80;75.30;;;;;;5089875;28;20879;-81
2023/10/23 02:07:02;;;;;;;11.70;5.00;;;10.80;75.20;;;;;;5070808;28;20920;-79
2023/10/23 02:09:30;;;;;;;16.73;8.20;;;10.70;75.40;;;;;;5075578;28;20456;-79
2023/10/23 02:12:00;;;;;;;25.00;12.97;;;10.60;75.20;;;;;;5072959;28;20457;-80
2023/10/23 02:14:30;;;;;;;28.30;15.20;;;10.50;75.20;;;;;;5075364;28;20542;-80
2023/10/23 02:16:58;;;;;;;20.13;8.97;;;10.50;75.20;;;;;;5074188;28;20601;-81
2023/10/23 02:19:30;;;;;;;13.63;5.97;;;10.40;75.30;;;;;;5089924;28;20456;-83
2023/10/23 02:21:58;;;;;;;12.43;5.60;;;10.40;75.40;;;;;;5083662;28;20445;-82
2023/10/23 02:24:26;;;;;;;10.50;6.40;;;10.40;75.60;;;;;;5071308;28;20472;-81
2023/10/23 02:26:55;;;;;;;10.33;5.07;;;10.40;75.70;;;;;;5076073;28;20469;-83
2023/10/23 02:29:28;;;;;;;11.10;3.43;;;10.40;75.70;;;;;;5070268;28;20962;-79
2023/10/23 02:31:56;;;;;;;18.20;4.40;;;10.40;75.80;;;;;;5084919;28;20523;-79
2023/10/23 02:34:24;;;;;;;12.30;4.80;;;10.40;75.80;;;;;;5065590;28;20701;-80
2023/10/23 02:36:54;;;;;;;15.13;6.67;;;10.40;75.80;;;;;;5093191;28;20454;-80
2023/10/23 02:39:22;;;;;;;33.00;17.50;;;10.40;75.80;;;;;;5059830;28;20468;-79
2023/10/23 02:41:51;;;;;;;26.00;11.87;;;10.40;75.70;;;;;;5070266;28;20462;-80
2023/10/23 02:44:19;;;;;;;10.60;5.70;;;10.40;75.70;;;;;;5091366;28;20560;-81
2023/10/23 02:46:47;;;;;;;15.87;7.43;;;10.40;75.80;;;;;;5071066;28;20970;-81
2023/10/23 02:49:19;;;;;;;12.53;5.63;;;10.40;75.80;;;;;;5075062;28;20966;-81
2023/10/23 02:51:48;;;;;;;11.17;4.93;;;10.40;75.90;;;;;;5072438;28;20475;-80
2023/10/23 02:54:17;;;;;;;10.27;4.97;;;10.40;75.90;;;;;;5088176;28;20464;-80
2023/10/23 02:56:45;;;;;;;11.50;4.60;;;10.50;75.80;;;;;;5099117;28;20464;-80
2023/10/23 02:59:13;;;;;;;9.67;4.97;;;10.50;75.80;;;;;;5070194;28;21105;-80
2023/10/23 03:01:42;;;;;;;16.63;4.40;;;10.50;75.70;;;;;;5074971;28;20911;-79
2023/10/23 03:04:10;;;;;;;10.20;5.33;;;10.50;75.60;;;;;;5095632;28;20464;-80
2023/10/23 03:06:39;;;;;;;10.73;7.33;;;10.50;75.50;;;;;;5089941;28;20981;-80
2023/10/23 03:09:07;;;;;;;12.37;6.13;;;10.40;75.60;;;;;;5091044;28;20462;-79
2023/10/23 03:11:38;;;;;;;14.13;8.10;;;10.40;75.60;;;;;;5097125;28;20464;-80
2023/10/23 03:14:08;;;;;;;18.27;7.80;;;10.40;75.50;;;;;;5068834;28;20453;-79
2023/10/23 03:16:39;;;;;;;12.07;6.53;;;10.40;75.30;;;;;;5065503;28;21164;-79
2023/10/23 03:19:07;;;;;;;8.10;3.80;;;10.30;75.40;;;;;;5078902;28;20489;-81
2023/10/23 03:21:35;;;;;;;9.93;4.70;;;10.30;75.40;;;;;;5087985;28;20538;-79
2023/10/23 03:24:04;;;;;;;12.73;5.30;;;10.30;75.30;;;;;;5069004;28;20491;-78
2023/10/23 03:26:32;;;;;;;8.00;4.00;;;10.30;75.40;;;;;;5086097;28;21073;-81
2023/10/23 03:29:02;;;;;;;8.90;3.63;;;10.20;75.40;;;;;;5084394;28;21045;-80
2023/10/23 03:31:32;;;;;;;15.27;6.63;;;10.20;75.30;;;;;;5072464;28;20515;-78
2023/10/23 03:34:01;;;;;;;15.63;7.57;;;10.20;75.20;;;;;;5096975;28;20472;-80
2023/10/23 03:36:29;;;;;;;18.20;8.60;;;10.20;75.00;;;;;;5093744;28;20817;-79
2023/10/23 03:38:57;;;;;;;8.90;3.90;;;10.10;75.00;;;;;;5091459;28;21027;-81
2023/10/23 03:41:26;;;;;;;8.67;3.63;;;10.10;75.30;;;;;;5072840;28;20460;-79
2023/10/23 03:43:55;;;;;;;9.90;3.40;;;10.10;75.40;;;;;;5087830;28;21100;-82
2023/10/23 03:46:24;;;;;;;6.10;3.37;;;10.10;75.40;;;;;;5093416;28;20472;-81
2023/10/23 03:48:54;;;;;;;14.23;3.47;;;10.10;75.40;;;;;;5094691;28;20463;-81
2023/10/23 03:51:22;;;;;;;8.80;3.33;;;10.10;75.40;;;;;;5089923;28;20496;-81
2023/10/23 03:53:50;;;;;;;7.00;2.60;;;10.10;75.30;;;;;;5075017;28;21081;-82
2023/10/23 03:56:19;;;;;;;15.43;6.67;;;10.10;75.10;;;;;;5081711;28;20993;-78
2023/10/23 03:58:47;;;;;;;7.50;3.23;;;10.00;75.00;;;;;;5069798;28;20453;-81
2023/10/23 04:01:15;;;;;;;17.83;9.17;;;10.00;75.00;;;;;;5089670;28;20566;-81
2023/10/23 04:03:45;;;;;;;15.60;7.80;;;10.00;74.70;;;;;;5075532;28;20456;-81
2023/10/23 04:06:13;;;;;;;13.70;5.40;;;9.90;74.80;;;;;;5098029;28;20481;-78
2023/10/23 04:08:41;;;;;;;11.90;4.60;;;9.80;75.00;;;;;;5091871;28;20570;-81
2023/10/23 04:11:13;;;;;;;8.20;3.60;;;9.80;75.10;;;;;;5070377;28;20840;-79
2023/10/23 04:13:41;;;;;;;7.77;2.60;;;9.80;75.10;;;;;;5089274;28;20465;-77
2023/10/23 04:16:09;;;;;;;7.27;2.60;;;9.80;75.00;;;;;;5074496;28;20822;-80
2023/10/23 04:18:37;;;;;;;6.60;2.97;;;9.80;75.00;;;;;;5076542;28;20448;-78
2023/10/23 04:21:08;;;;;;;6.63;2.80;;;9.80;75.00;;;;;;5083622;28;20460;-79
2023/10/23 04:23:36;;;;;;;7.17;3.33;;;9.80;75.00;;;;;;5099428;28;20528;-78
2023/10/23 04:26:05;;;;;;;7.70;3.13;;;9.80;75.00;;;;;;5089562;28;20486;-78
2023/10/23 04:28:34;;;;;;;16.97;8.70;;;9.80;74.90;;;;;;5088263;28;21354;-78
2023/10/23 04:31:03;;;;;;;11.27;6.20;;;9.80;74.80;;;;;;5087944;28;20484;-80
2023/10/23 04:33:31;;;;;;;10.83;7.10;;;9.80;74.70;;;;;;5077179;28;20483;-79
2023/10/23 04:36:00;;;;;;;12.43;5.83;;;9.70;74.70;;;;;;5093297;28;20465;-79
2023/10/23 04:38:32;;;;;;;12.80;6.20;;;9.70;74.70;;;;;;5090038;28;20861;-79
2023/10/23 04:41:01;;;;;;;10.00;4.10;;;9.70;74.70;;;;;;5087808;28;21054;-80
2023/10/23 04:43:29;;;;;;;8.20;4.20;;;9.70;74.70;;;;;;5095110;28;20460;-78
2023/10/23 04:45:57;;;;;;;7.67;3.47;;;9.70;74.70;;;;;;5081146;28;20469;-81
2023/10/23 04:48:26;;;;;;;6.57;3.23;;;9.70;74.70;;;;;;5089877;28;20820;-81
2023/10/23 04:50:58;;;;;;;13.00;3.80;;;9.70;74.70;;;;;;5090402;28;20482;-81
2023/10/23 04:53:26;;;;;;;7.60;3.10;;;9.70;74.70;;;;;;5087714;28;20503;-81
2023/10/23 04:55:58;;;;;;;7.20;3.37;;;9.70;74.70;;;;;;5085115;28;21305;-81
2023/10/23 04:58:26;;;;;;;6.67;3.07;;;9.70;74.60;;;;;;5081192;28;20460;-79
2023/10/23 05:00:54;;;;;;;16.07;5.90;;;9.70;74.60;;;;;;5070899;28;20555;-81
2023/10/23 05:03:22;;;;;;;21.43;11.07;;;9.70;74.60;;;;;;5085388;28;20461;-79
2023/10/23 05:05:51;;;;;;;13.57;6.93;;;9.70;74.70;;;;;;5084770;28;20877;-80
2023/10/23 05:08:19;;;;;;;11.07;5.57;;;9.70;74.70;;;;;;5071090;28;20497;-80
2023/10/23 05:10:47;;;;;;;7.17;3.63;;;9.70;74.80;;;;;;5096303;28;20470;-82
2023/10/23 05:13:17;;;;;;;9.63;4.10;;;9.70;74.70;;;;;;5073185;28;20532;-79
2023/10/23 05:15:44;;;;;;;13.07;6.70;;;9.70;74.70;;;;;;5089883;28;20974;-78
2023/10/23 05:18:13;;;;;;;15.47;4.73;;;9.70;74.70;;;;;;5089005;28;20496;-76
2023/10/23 05:20:41;;;;;;;11.43;4.53;;;9.70;74.70;;;;;;5087556;28;20480;-81
2023/10/23 05:23:09;;;;;;;16.33;5.67;;;9.70;74.60;;;;;;5087509;28;20499;-81
2023/10/23 05:25:54;;;;;;;20.17;7.93;;;9.60;74.60;;;;;;5084769;28;20499;-77
2023/10/23 05:28:32;;;;;;;13.13;6.40;;;9.60;74.60;;;;;;5074833;28;20462;-78
2023/10/23 05:31:00;;;;;;;14.50;6.37;;;9.50;74.80;;;;;;5096569;28;20563;-80
2023/10/23 05:33:28;;;;;;;15.97;9.37;;;9.50;75.00;;;;;;5091103;28;20808;-79
2023/10/23 05:36:04;;;;;;;14.90;8.50;;;9.50;75.10;;;;;;5082488;28;20475;-79
2023/10/23 05:38:34;;;;;;;13.40;7.30;;;9.60;75.20;;;;;;5089132;28;20464;-79
2023/10/23 05:41:02;;;;;;;13.60;8.30;;;9.60;75.20;;;;;;5090739;28;20460;-80
2023/10/23 05:43:31;;;;;;;13.90;7.20;;;9.60;75.20;;;;;;5087246;28;20472;-78
2023/10/23 05:46:03;;;;;;;12.30;7.10;;;9.60;75.20;;;;;;5089172;28;21018;-80
2023/10/23 05:48:31;;;;;;;11.80;5.47;;;9.60;75.30;;;;;;5075741;28;21056;-80
2023/10/23 05:51:00;;;;;;;9.43;5.47;;;9.60;75.30;;;;;;5083509;28;20498;-79
2023/10/23 05:53:29;;;;;;;10.93;5.70;;;9.60;75.50;;;;;;5088858;28;20461;-80
2023/10/23 05:56:03;;;;;;;11.77;4.50;;;9.60;75.60;;;;;;5092284;28;20475;-78
2023/10/23 05:58:35;;;;;;;7.00;4.17;;;9.60;75.60;;;;;;5077823;28;21261;-79
2023/10/23 06:01:07;;;;;;;9.00;4.50;;;9.60;75.60;;;;;;5082509;28;20832;-79
2023/10/23 06:03:35;;;;;;;9.57;4.40;;;9.60;75.60;;;;;;5096130;28;20547;-77
2023/10/23 06:06:04;;;;;;;14.77;4.73;;;9.60;75.60;;;;;;5066563;28;20465;-80
2023/10/23 06:08:32;;;;;;;15.97;4.73;;;9.60;75.70;;;;;;5092729;28;20488;-81
2023/10/23 06:11:00;;;;;;;7.50;4.23;;;9.60;75.70;;;;;;5068802;28;20467;-80
2023/10/23 06:13:29;;;;;;;7.60;4.30;;;9.60;75.80;;;;;;5082612;28;20668;-79
2023/10/23 06:16:04;;;;;;;9.07;4.20;;;9.60;76.00;;;;;;5096556;28;20471;-78
2023/10/23 06:18:33;;;;;;;8.83;3.87;;;9.60;76.10;;;;;;5095637;28;20464;-81
2023/10/23 06:21:03;;;;;;;8.57;3.83;;;9.60;76.10;;;;;;5097442;28;20460;-80
2023/10/23 06:23:32;;;;;;;13.63;4.77;;;9.60;76.10;;;;;;5091347;28;20471;-80
2023/10/23 06:26:01;;;;;;;8.47;4.10;;;9.60;76.20;;;;;;5095111;28;20459;-81
2023/10/23 06:28:29;;;;;;;6.50;3.73;;;9.60;76.30;;;;;;5077802;28;20500;-78
2023/10/23 06:30:57;;;;;;;8.10;4.07;;;9.60;76.30;;;;;;5075933;28;20494;-80
2023/10/23 06:33:27;;;;;;;6.63;3.47;;;9.60;76.40;;;;;;5089334;28;20460;-80
2023/10/23 06:35:59;;;;;;;7.63;4.13;;;9.70;76.70;;;;;;5082224;28;20832;-78
2023/10/23 06:38:27;;;;;;;7.67;3.57;;;9.70;76.70;;;;;;5095272;28;20513;-80
2023/10/23 06:40:55;;;;;;;12.70;3.80;;;9.70;76.70;;;;;;5094119;28;20484;-80
2023/10/23 06:43:24;;;;;;;8.27;4.90;;;9.70;76.70;;;;;;5098968;28;21261;-80
2023/10/23 06:45:53;;;;;;;9.77;6.00;;;9.70;76.80;;;;;;5095012;28;21235;-78
2023/10/23 06:48:30;;;;;;;9.60;6.90;;;9.70;76.90;;;;;;5098594;28;20483;-80
2023/10/23 06:50:59;;;;;;;13.17;5.50;;;9.70;77.00;;;;;;5091952;28;20453;-80
2023/10/23 06:53:28;;;;;;;9.30;4.77;;;9.80;77.10;;;;;;5095033;28;20805;-80
2023/10/23 06:55:56;;;;;;;9.00;4.43;;;9.80;77.20;;;;;;5100040;28;20829;-78
2023/10/23 06:58:24;;;;;;;10.43;5.80;;;9.80;77.20;;;;;;5073268;28;20560;-79
2023/10/23 07:00:52;;;;;;;11.90;5.67;;;9.80;77.20;;;;;;5099897;28;20531;-80
2023/10/23 07:03:20;;;;;;;21.20;7.40;;;9.80;77.30;;;;;;5097140;28;20500;-81
2023/10/23 07:05:51;;;;;;;14.83;6.93;;;9.80;77.40;;;;;;5097681;28;20547;-80
2023/10/23 07:08:19;;;;;;;11.17;5.77;;;9.80;77.40;;;;;;5100800;28;20507;-81
2023/10/23 07:10:49;;;;;;;10.37;5.63;;;9.80;77.50;;;;;;5081595;28;20478;-79
2023/10/23 07:13:19;;;;;;;7.53;3.67;;;9.90;77.50;;;;;;5096805;28;20525;-80
2023/10/23 07:15:50;;;;;;;11.33;3.97;;;9.90;77.60;;;;;;5102702;28;20468;-79
2023/10/23 07:18:18;;;;;;;16.23;3.87;;;9.90;77.60;;;;;;5087655;28;20468;-78
2023/10/23 07:20:56;;;;;;;9.63;3.80;;;9.90;77.60;;;;;;5073621;28;20460;-78
2023/10/23 07:23:25;;;;;;;10.50;3.93;;;10.00;77.70;;;;;;5106075;28;20456;-80
2023/10/23 07:26:10;;;;;;;15.00;3.70;;;10.00;77.60;;;;;;5084761;28;21100;-78
2023/10/23 07:28:39;;;;;;;14.00;4.53;;;10.00;77.70;;;;;;5084944;28;20582;-79
2023/10/23 07:31:09;;;;;;;9.20;4.10;;;10.00;77.80;;;;;;5096025;28;20494;-79
2023/10/23 07:33:37;;;;;;;12.60;3.87;;;10.00;78.00;;;;;;5080044;28;20461;-78
2023/10/23 07:36:09;;;;;;;27.23;6.50;;;10.00;78.10;;;;;;5073197;28;20454;-79
2023/10/23 07:38:38;;;;;;;59.50;31.53;;;10.00;78.00;;;;;;5092107;28;20455;-80
2023/10/23 07:41:06;;;;;;;33.50;19.20;;;10.00;78.00;;;;;;5096823;28;20462;-80
2023/10/23 07:43:35;;;;;;;35.27;9.27;;;10.00;78.10;;;;;;5080840;28;20459;-79
2023/10/23 07:46:05;;;;;;;18.47;8.73;;;10.10;78.20;;;;;;5084025;28;20452;-81
2023/10/23 07:48:45;;;;;;;23.93;9.10;;;10.10;78.30;;;;;;5073408;28;20549;-77
2023/10/23 07:51:15;;;;;;;20.67;9.93;;;10.10;78.30;;;;;;5092207;28;20880;-82
2023/10/23 07:53:44;;;;;;;15.40;9.53;;;10.10;78.40;;;;;;5093330;28;20490;-79
2023/10/23 07:56:12;;;;;;;19.97;11.07;;;10.10;78.50;;;;;;5079380;28;20459;-79
2023/10/23 07:58:41;;;;;;;20.93;10.37;;;10.20;78.60;;;;;;5096533;28;20467;-80
2023/10/23 08:01:11;;;;;;;26.33;11.30;;;10.20;78.50;;;;;;5078907;28;20467;-81
2023/10/23 08:03:39;;;;;;;17.80;11.00;;;10.20;78.50;;;;;;5080896;28;20466;-80
2023/10/23 08:06:10;;;;;;;18.63;11.70;;;10.20;78.50;;;;;;5090782;28;21027;-78
2023/10/23 08:08:41;;;;;;;26.57;12.30;;;10.20;78.60;;;;;;5073158;28;20865;-79
2023/10/23 08:11:11;;;;;;;25.50;12.10;;;10.30;78.80;;;;;;5094635;28;20455;-80
2023/10/23 08:13:39;;;;;;;23.70;13.10;;;10.30;78.80;;;;;;5100141;28;20459;-80
2023/10/23 08:16:07;;;;;;;36.00;15.70;;;10.40;78.90;;;;;;5087804;28;20509;-79
2023/10/23 08:18:36;;;;;;;32.57;16.37;;;10.40;78.80;;;;;;5080738;28;21198;-78
2023/10/23 08:21:11;;;;;;;25.80;13.50;;;10.40;78.80;;;;;;5093933;28;20441;-80
2023/10/23 08:23:40;;;;;;;30.37;15.10;;;10.40;78.90;;;;;;5076578;28;21080;-79
2023/10/23 08:26:08;;;;;;;31.77;16.67;;;10.50;78.90;;;;;;5091663;28;20556;-81
2023/10/23 08:28:37;;;;;;;27.47;14.67;;;10.50;79.00;;;;;;5097103;28;20946;-80
2023/10/23 08:31:08;;;;;;;27.13;14.80;;;10.50;79.20;;;;;;5067336;28;20483;-80
2023/10/23 08:33:56;;;;;;;23.70;12.77;;;10.60;79.30;;;;;;5076335;28;20893;-78
2023/10/23 08:36:24;;;;;;;28.60;15.70;;;10.60;79.30;;;;;;5074434;28;20457;-79
2023/10/23 08:38:58;;;;;;;35.37;16.93;;;10.70;79.40;;;;;;5073545;28;20489;-79
2023/10/23 08:41:27;;;;;;;29.07;16.17;;;10.70;79.60;;;;;;5074627;28;20464;-81
2023/10/23 08:43:56;;;;;;;23.50;14.60;;;10.80;79.70;;;;;;5082327;28;20527;-80
2023/10/23 08:46:27;;;;;;;31.40;15.37;;;10.90;79.80;;;;;;5069101;28;20461;-79
2023/10/23 08:48:55;;;;;;;24.53;14.37;;;11.00;79.90;;;;;;5069213;28;20478;-80
2023/10/23 08:51:23;;;;;;;26.97;14.20;;;11.10;79.90;;;;;;5072576;28;20461;-80
2023/10/23 08:54:01;;;;;;;20.00;12.93;;;11.10;80.00;;;;;;5074959;28;20879;-80
2023/10/23 08:56:40;;;;;;;23.40;11.30;;;11.20;80.10;;;;;;5066574;28;20461;-79
2023/10/23 08:59:11;;;;;;;21.90;11.57;;;11.20;80.10;;;;;;5070526;28;20461;-80
2023/10/23 09:01:39;;;;;;;17.33;10.80;;;11.30;80.10;;;;;;5066522;28;20490;-80
2023/10/23 09:04:10;;;;;;;18.60;10.20;;;11.30;80.10;;;;;;5069561;28;20453;-80
2023/10/23 09:06:42;;;;;;;15.53;10.67;;;11.30;80.10;;;;;;5068930;28;20458;-80
2023/10/23 09:09:13;;;;;;;13.67;8.70;;;11.40;80.20;;;;;;5076224;28;21091;-79
2023/10/23 09:11:44;;;;;;;13.43;8.20;;;11.40;80.20;;;;;;5071447;28;20461;-78
2023/10/23 09:14:24;;;;;;;10.60;7.80;;;11.40;80.30;;;;;;5075380;28;20449;-81
2023/10/23 09:16:54;;;;;;;13.17;7.93;;;11.40;80.60;;;;;;5071281;28;20461;-79
2023/10/23 09:19:27;;;;;;;9.67;6.47;;;11.50;80.60;;;;;;5067561;28;20453;-79
2023/10/23 09:21:57;;;;;;;13.13;7.67;;;11.50;80.60;;;;;;5074760;28;20454;-81
2023/10/23 09:24:26;;;;;;;10.37;6.53;;;11.50;80.70;;;;;;5068094;28;20535;-78
2023/10/23 09:26:54;;;;;;;11.63;7.37;;;11.60;80.70;;;;;;5072769;28;20556;-80
2023/10/23 09:29:23;;;;;;;10.63;6.73;;;11.70;80.80;;;;;;5072433;28;20581;-79
2023/10/23 09:31:55;;;;;;;14.07;7.20;;;11.70;80.80;;;;;;5070120;28;20507;-78
2023/10/23 09:34:24;;;;;;;10.20;6.63;;;11.80;80.80;;;;;;5069470;28;20549;-80
2023/10/23 09:36:55;;;;;;;11.53;6.20;;;11.80;80.90;;;;;;5070874;28;20458;-79
2023/10/23 09:39:26;;;;;;;11.90;5.87;;;11.90;80.90;;;;;;5082058;28;20449;-80
2023/10/23 09:41:56;;;;;;;10.67;6.63;;;11.90;80.90;;;;;;5072787;28;20840;-79
2023/10/23 09:44:27;;;;;;;11.07;5.90;;;12.00;81.10;;;;;;5066288;28;20490;-78
2023/10/23 09:46:59;;;;;;;10.30;5.90;;;12.10;81.10;;;;;;5068718;28;20472;-80
2023/10/23 09:49:29;;;;;;;11.53;5.60;;;12.10;81.10;;;;;;5069572;28;20556;-80
2023/10/23 09:52:01;;;;;;;10.90;6.30;;;12.20;81.10;;;;;;5072721;28;20458;-80
2023/10/23 09:54:32;;;;;;;14.10;5.73;;;12.20;81.10;;;;;;5072918;28;20450;-78
2023/10/23 09:57:04;;;;;;;10.70;5.93;;;12.30;81.20;;;;;;5072952;28;20467;-80
2023/10/23 09:59:42;;;;;;;13.13;7.33;;;12.30;81.30;;;;;;5071583;28;20492;-80
2023/10/23 10:02:11;;;;;;;11.57;6.40;;;12.30;81.30;;;;;;5067680;28;20850;-81
2023/10/23 10:04:50;;;;;;;34.63;12.23;;;12.40;81.40;;;;;;5071436;28;20472;-78
2023/10/23 10:07:23;;;;;;;28.73;10.57;;;12.40;81.50;;;;;;5068918;28;20864;-79
2023/10/23 10:09:53;;;;;;;17.73;7.50;;;12.40;81.40;;;;;;5073575;28;20465;-78
2023/10/23 10:12:22;;;;;;;12.30;7.33;;;12.50;81.60;;;;;;5066311;28;20463;-79
2023/10/23 10:14:53;;;;;;;14.30;7.00;;;12.50;81.70;;;;;;5073258;28;20453;-79
2023/10/23 10:17:21;;;;;;;39.53;16.40;;;12.60;81.60;;;;;;5082298;28;20843;-80
2023/10/23 10:19:50;;;;;;;23.53;10.50;;;12.70;81.60;;;;;;5071298;28;20484;-79
2023/10/23 10:22:24;;;;;;;17.70;7.83;;;12.70;81.60;;;;;;5072996;28;20444;-78
2023/10/23 10:24:54;;;;;;;12.97;7.50;;;12.80;81.80;;;;;;5075015;28;20461;-78
2023/10/23 10:27:23;;;;;;;14.47;7.60;;;12.90;81.70;;;;;;5076237;28;20483;-80
2023/10/23 10:29:51;;;;;;;14.63;6.97;;;12.90;81.70;;;;;;5072960;28;20581;-80
2023/10/23 10:32:23;;;;;;;13.13;7.70;;;13.00;81.60;;;;;;5073721;28;20505;-79
2023/10/23 10:34:53;;;;;;;12.90;7.30;;;13.00;81.60;;;;;;5074591;28;20539;-80
2023/10/23 10:37:25;;;;;;;14.10;8.20;;;13.10;81.60;;;;;;5069596;28;20461;-79
2023/10/23 10:40:11;;;;;;;16.00;8.10;;;13.10;81.60;;;;;;5075065;28;20449;-80
2023/10/23 10:42:42;;;;;;;14.40;8.30;;;13.10;81.60;;;;;;5074682;28;20441;-79
2023/10/23 10:45:15;;;;;;;10.77;7.40;;;13.10;81.50;;;;;;5075039;28;20449;-81
2023/10/23 10:47:46;;;;;;;14.60;8.00;;;13.10;81.50;;;;;;5075395;28;21795;-80
2023/10/23 10:50:31;;;;;;;14.73;8.57;;;13.20;81.60;;;;;;5078819;28;20476;-79
2023/10/23 10:53:04;;;;;;;10.87;7.60;;;13.20;81.60;;;;;;5074180;28;21296;-79
2023/10/23 10:55:34;;;;;;;14.50;9.13;;;13.20;81.60;;;;;;5072049;28;20493;-79
2023/10/23 10:58:04;;;;;;;14.30;8.30;;;13.30;81.60;;;;;;5072266;28;21201;-80
2023/10/23 11:00:35;;;;;;;13.63;7.93;;;13.30;81.50;;;;;;5072694;28;20512;-80
2023/10/23 11:03:03;;;;;;;13.60;8.87;;;13.40;81.50;;;;;;5078671;28;20492;-79
2023/10/23 11:05:32;;;;;;;17.20;8.50;;;13.40;81.50;;;;;;5076480;28;20855;-80
2023/10/23 11:08:01;;;;;;;12.97;8.37;;;13.40;81.60;;;;;;5070431;28;20496;-78
2023/10/23 11:10:29;;;;;;;13.70;7.93;;;13.40;81.60;;;;;;5078044;28;21160;-79
2023/10/23 11:12:59;;;;;;;16.70;8.70;;;13.50;81.70;;;;;;5079894;28;20511;-79
2023/10/23 11:15:27;;;;;;;15.00;8.00;;;13.50;81.70;;;;;;5073040;28;20460;-80
2023/10/23 11:17:56;;;;;;;14.37;7.77;;;13.60;81.80;;;;;;5078623;28;20478;-79
2023/10/23 11:20:30;;;;;;;16.80;7.73;;;13.60;81.70;;;;;;5077272;28;20934;-80
2023/10/23 11:22:59;;;;;;;12.33;7.20;;;13.70;81.70;;;;;;5078096;28;20463;-80
2023/10/23 11:25:28;;;;;;;11.50;6.50;;;13.70;81.80;;;;;;5073376;28;20441;-79
2023/10/23 11:27:56;;;;;;;14.47;6.03;;;13.80;81.80;;;;;;5071465;28;20521;-79
2023/10/23 11:30:29;;;;;;;14.80;6.00;;;13.80;81.70;;;;;;5074152;28;20477;-79
2023/10/23 11:32:57;;;;;;;11.90;6.67;;;13.80;81.80;;;;;;5072749;28;20456;-79
2023/10/23 11:35:33;;;;;;;18.20;6.37;;;13.90;81.80;;;;;;5077139;28;20457;-77
2023/10/23 11:38:01;;;;;;;16.83;6.63;;;13.90;81.80;;;;;;5075692;28;20986;-79
2023/10/23 11:40:36;;;;;;;14.73;7.10;;;14.00;81.70;;;;;;5076586;28;20850;-78
2023/10/23 11:43:05;;;;;;;13.83;7.40;;;14.10;81.70;;;;;;5074656;28;21176;-81
2023/10/23 11:45:35;;;;;;;13.43;7.33;;;14.10;81.80;;;;;;5073867;28;20501;-80
2023/10/23 11:48:04;;;;;;;13.00;5.00;;;14.10;81.70;;;;;;5066687;28;20453;-79
2023/10/23 11:50:35;;;;;;;12.50;3.90;;;14.10;81.70;;;;;;5071911;28;20469;-80
2023/10/23 11:53:04;;;;;;;7.53;3.13;;;14.20;81.60;;;;;;5078781;28;20528;-81
2023/10/23 11:55:33;;;;;;;11.50;4.10;;;14.20;81.50;;;;;;5073059;28;20446;-82
2023/10/23 11:58:03;;;;;;;12.03;4.07;;;14.20;81.40;;;;;;5071223;28;20441;-79
2023/10/23 12:00:33;;;;;;;11.37;3.50;;;14.30;81.40;;;;;;5064642;28;20471;-79
2023/10/23 12:03:04;;;;;;;11.13;3.90;;;14.30;81.20;;;;;;5072775;28;21024;-78
2023/10/23 12:05:33;;;;;;;12.37;4.10;;;14.30;81.10;;;;;;5074719;28;20460;-79
2023/10/23 12:08:01;;;;;;;9.70;3.80;;;14.40;81.00;;;;;;5074544;28;20455;-77
2023/10/23 12:10:29;;;;;;;9.60;3.30;;;14.40;80.80;;;;;;5078993;28;20579;-78
2023/10/23 12:12:57;;;;;;;13.73;4.63;;;14.50;80.60;;;;;;5079403;28;20451;-77
2023/10/23 12:15:27;;;;;;;14.07;4.87;;;14.50;80.40;;;;;;5076471;28;20539;-81
2023/10/23 12:18:02;;;;;;;10.87;4.90;;;14.50;80.30;;;;;;5081101;28;20461;-80
2023/10/23 12:20:32;;;;;;;14.30;4.73;;;14.60;80.20;;;;;;5068809;28;20445;-80
2023/10/23 12:23:01;;;;;;;10.30;4.20;;;14.60;80.00;;;;;;5069041;28;20452;-79
2023/10/23 12:25:29;;;;;;;10.60;4.77;;;14.70;79.90;;;;;;5075612;28;20449;-81
2023/10/23 12:27:57;;;;;;;12.93;4.40;;;14.70;79.80;;;;;;5076654;28;20449;-78
2023/10/23 12:30:26;;;;;;;10.83;4.00;;;14.70;79.60;;;;;;5072292;28;20489;-80
2023/10/23 12:32:56;;;;;;;13.43;4.97;;;14.80;79.50;;;;;;5072231;28;20460;-79
2023/10/23 12:35:45;;;;;;;9.80;3.80;;;14.80;79.30;;;;;;5077634;28;21168;-80
2023/10/23 12:38:13;;;;;;;10.90;3.50;;;14.90;79.20;;;;;;5080389;28;20471;-79
2023/10/23 12:40:43;;;;;;;13.77;4.07;;;14.90;79.10;;;;;;5075680;28;20455;-80
2023/10/23 12:43:11;;;;;;;9.87;3.83;;;14.90;78.80;;;;;;5078529;28;20895;-79
2023/10/23 12:45:40;;;;;;;11.57;3.90;;;14.90;78.70;;;;;;5074730;28;20537;-82
2023/10/23 12:48:08;;;;;;;10.40;4.33;;;15.00;78.60;;;;;;5074916;28;20466;-79
2023/10/23 12:50:37;;;;;;;8.13;3.60;;;15.00;78.50;;;;;;5071133;28;20465;-81
2023/10/23 12:53:09;;;;;;;11.07;4.50;;;15.10;78.50;;;;;;5069969;28;20450;-79